sensor_id;sensor_type;location;lat;lon;timestamp;P1;durP1;ratioP1;P2;durP2;ratioP2
63955;SDS011;50131;52.084;5.228;2022-09-13T00:01:11;72.5;;;31.1;;
63955;SDS011;50131;52.084;5.228;2022-09-13T00:04:23;116.7;;;39.6;;
63955;SDS011;50131;52.084;5.228;2022-09-13T00:06:06;61.0;;;36.1;;
63955;SDS011;50131;52.084;5.228;2022-09-13T00:07:45;39.71;;;19.5;;
63955;SDS011;50131;52.084;5.228;2022-09-13T00:09:23;91.0;;;40.71;;
63955;SDS011;50131;52.084;5.228;2022-09-13T00:12:35;80.91;;;35.9;;
63955;SDS011;50131;52.084;5.228;2022-09-13T00:14:11;39.21;;;18.2;;
63955;SDS011;50131;52.084;5.228;2022-09-13T00:15:48;138.4;;;75.11;;
63955;SDS011;50131;52.084;5.228;2022-09-13T00:19:01;87.5;;;64.7;;
63955;SDS011;50131;52.084;5.228;2022-09-13T00:20:38;182.8;;;109.4;;
63955;SDS011;50131;52.084;5.228;2022-09-13T00:22:14;111.2;;;95.2;;
63955;SDS011;50131;52.084;5.228;2022-09-13T00:25:28;95.3;;;86.4;;
63955;SDS011;50131;52.084;5.228;2022-09-13T00:27:04;110.2;;;99.8;;
63955;SDS011;50131;52.084;5.228;2022-09-13T00:28:41;91.3;;;28.3;;
63955;SDS011;50131;52.084;5.228;2022-09-13T00:30:18;17.8;;;15.8;;
63955;SDS011;50131;52.084;5.228;2022-09-13T00:33:30;50.2;;;45.9;;
63955;SDS011;50131;52.084;5.228;2022-09-13T00:35:07;75.8;;;54.0;;
63955;SDS011;50131;52.084;5.228;2022-09-13T00:36:44;62.7;;;57.1;;
63955;SDS011;50131;52.084;5.228;2022-09-13T00:39:57;82.1;;;44.1;;
63955;SDS011;50131;52.084;5.228;2022-09-13T00:41:34;60.9;;;34.71;;
63955;SDS011;50131;52.084;5.228;2022-09-13T00:43:11;120.5;;;109.0;;
63955;SDS011;50131;52.084;5.228;2022-09-13T00:44:53;94.4;;;69.61;;
63955;SDS011;50131;52.084;5.228;2022-09-13T00:48:16;53.5;;;49.0;;
63955;SDS011;50131;52.084;5.228;2022-09-13T00:49:57;101.1;;;42.0;;
63955;SDS011;50131;52.084;5.228;2022-09-13T00:51:38;98.9;;;54.9;;
63955;SDS011;50131;52.084;5.228;2022-09-13T00:53:22;81.91;;;65.41;;
63955;SDS011;50131;52.084;5.228;2022-09-13T00:56:46;28.3;;;25.2;;
63955;SDS011;50131;52.084;5.228;2022-09-13T00:58:28;54.4;;;37.0;;
63955;SDS011;50131;52.084;5.228;2022-09-13T01:00:11;125.8;;;67.3;;
63955;SDS011;50131;52.084;5.228;2022-09-13T01:01:52;154.71;;;105.4;;
63955;SDS011;50131;52.084;5.228;2022-09-13T01:05:10;82.1;;;73.8;;
63955;SDS011;50131;52.084;5.228;2022-09-13T01:06:49;27.8;;;16.5;;
63955;SDS011;50131;52.084;5.228;2022-09-13T01:08:30;101.6;;;60.2;;
63955;SDS011;50131;52.084;5.228;2022-09-13T01:13:32;61.5;;;46.6;;
63955;SDS011;50131;52.084;5.228;2022-09-13T01:15:11;104.8;;;47.6;;
63955;SDS011;50131;52.084;5.228;2022-09-13T01:16:47;122.0;;;63.5;;
63955;SDS011;50131;52.084;5.228;2022-09-13T01:18:23;117.3;;;106.7;;
63955;SDS011;50131;52.084;5.228;2022-09-13T01:23:10;124.1;;;111.5;;
63955;SDS011;50131;52.084;5.228;2022-09-13T01:28:30;84.7;;;45.3;;
63955;SDS011;50131;52.084;5.228;2022-09-13T01:30:30;54.8;;;33.21;;
63955;SDS011;50131;52.084;5.228;2022-09-13T01:32:14;117.1;;;106.0;;
63955;SDS011;50131;52.084;5.228;2022-09-13T01:34:06;88.2;;;65.91;;
63955;SDS011;50131;52.084;5.228;2022-09-13T01:36:06;66.6;;;43.8;;
63955;SDS011;50131;52.084;5.228;2022-09-13T01:38:33;129.31;;;117.6;;
63955;SDS011;50131;52.084;5.228;2022-09-13T01:40:23;103.2;;;93.9;;
63955;SDS011;50131;52.084;5.228;2022-09-13T01:42:14;103.2;;;93.9;;
63955;SDS011;50131;52.084;5.228;2022-09-13T01:44:04;74.61;;;34.71;;
63955;SDS011;50131;52.084;5.228;2022-09-13T01:45:55;101.2;;;45.4;;
63955;SDS011;50131;52.084;5.228;2022-09-13T01:47:42;131.81;;;60.9;;
63955;SDS011;50131;52.084;5.228;2022-09-13T01:51:10;28.7;;;22.0;;
63955;SDS011;50131;52.084;5.228;2022-09-13T01:52:57;105.5;;;61.4;;
63955;SDS011;50131;52.084;5.228;2022-09-13T01:54:40;74.91;;;59.4;;
63955;SDS011;50131;52.084;5.228;2022-09-13T01:56:30;160.71;;;56.1;;
63955;SDS011;50131;52.084;5.228;2022-09-13T01:58:16;94.7;;;34.5;;
63955;SDS011;50131;52.084;5.228;2022-09-13T02:01:41;31.4;;;24.3;;
63955;SDS011;50131;52.084;5.228;2022-09-13T02:03:23;154.5;;;55.9;;
63955;SDS011;50131;52.084;5.228;2022-09-13T02:05:08;126.6;;;39.4;;
63955;SDS011;50131;52.084;5.228;2022-09-13T02:06:52;168.2;;;58.7;;
63955;SDS011;50131;52.084;5.228;2022-09-13T02:08:39;104.8;;;94.3;;
63955;SDS011;50131;52.084;5.228;2022-09-13T02:12:02;64.2;;;48.6;;
63955;SDS011;50131;52.084;5.228;2022-09-13T02:13:45;135.7;;;87.2;;
63955;SDS011;50131;52.084;5.228;2022-09-13T02:15:26;155.71;;;115.3;;
63955;SDS011;50131;52.084;5.228;2022-09-13T02:17:10;92.4;;;78.8;;
63955;SDS011;50131;52.084;5.228;2022-09-13T02:20:33;101.1;;;71.5;;
63955;SDS011;50131;52.084;5.228;2022-09-13T02:22:13;77.41;;;48.9;;
63955;SDS011;50131;52.084;5.228;2022-09-13T02:23:57;62.4;;;52.4;;
63955;SDS011;50131;52.084;5.228;2022-09-13T02:25:36;125.6;;;93.9;;
63955;SDS011;50131;52.084;5.228;2022-09-13T02:28:58;137.0;;;64.6;;
63955;SDS011;50131;52.084;5.228;2022-09-13T02:30:40;141.9;;;112.4;;
63955;SDS011;50131;52.084;5.228;2022-09-13T02:32:28;71.7;;;60.3;;
63955;SDS011;50131;52.084;5.228;2022-09-13T02:34:10;203.5;;;95.6;;
63955;SDS011;50131;52.084;5.228;2022-09-13T02:35:52;225.2;;;104.5;;
63955;SDS011;50131;52.084;5.228;2022-09-13T02:39:16;86.2;;;72.0;;
63955;SDS011;50131;52.084;5.228;2022-09-13T02:40:57;85.7;;;76.91;;
63955;SDS011;50131;52.084;5.228;2022-09-13T02:42:41;55.9;;;25.5;;
63955;SDS011;50131;52.084;5.228;2022-09-13T02:44:23;68.8;;;54.3;;
63955;SDS011;50131;52.084;5.228;2022-09-13T02:47:57;131.1;;;93.5;;
63955;SDS011;50131;52.084;5.228;2022-09-13T02:49:37;64.8;;;25.6;;
63955;SDS011;50131;52.084;5.228;2022-09-13T02:51:24;107.5;;;56.4;;
63955;SDS011;50131;52.084;5.228;2022-09-13T02:53:10;114.6;;;49.2;;
63955;SDS011;50131;52.084;5.228;2022-09-13T02:54:55;150.1;;;121.6;;
63955;SDS011;50131;52.084;5.228;2022-09-13T02:56:42;33.5;;;22.8;;
63955;SDS011;50131;52.084;5.228;2022-09-13T03:00:11;46.2;;;41.2;;
63955;SDS011;50131;52.084;5.228;2022-09-13T03:01:48;22.5;;;19.2;;
63955;SDS011;50131;52.084;5.228;2022-09-13T03:03:28;65.8;;;59.7;;
63955;SDS011;50131;52.084;5.228;2022-09-13T03:05:04;126.4;;;113.9;;
63955;SDS011;50131;52.084;5.228;2022-09-13T03:08:18;88.0;;;49.0;;
63955;SDS011;50131;52.084;5.228;2022-09-13T03:09:57;57.0;;;40.5;;
63955;SDS011;50131;52.084;5.228;2022-09-13T03:11:41;75.3;;;30.8;;
63955;SDS011;50131;52.084;5.228;2022-09-13T03:13:33;151.5;;;58.6;;
63955;SDS011;50131;52.084;5.228;2022-09-13T03:17:24;135.6;;;120.9;;
63955;SDS011;50131;52.084;5.228;2022-09-13T03:19:21;163.0;;;101.3;;
63955;SDS011;50131;52.084;5.228;2022-09-13T03:21:14;30.3;;;24.1;;
63955;SDS011;50131;52.084;5.228;2022-09-13T03:23:18;35.31;;;29.6;;
63955;SDS011;50131;52.084;5.228;2022-09-13T03:25:11;28.6;;;22.9;;
63955;SDS011;50131;52.084;5.228;2022-09-13T03:27:02;111.4;;;66.3;;
63955;SDS011;50131;52.084;5.228;2022-09-13T03:28:53;102.2;;;51.4;;
63955;SDS011;50131;52.084;5.228;2022-09-13T03:30:46;25.1;;;19.11;;
63955;SDS011;50131;52.084;5.228;2022-09-13T03:32:40;102.4;;;57.6;;
63955;SDS011;50131;52.084;5.228;2022-09-13T03:34:27;176.0;;;96.8;;
63955;SDS011;50131;52.084;5.228;2022-09-13T03:37:56;176.0;;;96.8;;
63955;SDS011;50131;52.084;5.228;2022-09-13T03:39:40;127.4;;;99.0;;
63955;SDS011;50131;52.084;5.228;2022-09-13T03:41:23;83.2;;;39.1;;
63955;SDS011;50131;52.084;5.228;2022-09-13T03:43:08;41.5;;;26.3;;
63955;SDS011;50131;52.084;5.228;2022-09-13T03:44:48;170.5;;;103.2;;
63955;SDS011;50131;52.084;5.228;2022-09-13T03:48:12;65.6;;;59.0;;
63955;SDS011;50131;52.084;5.228;2022-09-13T03:49:50;161.0;;;100.1;;
63955;SDS011;50131;52.084;5.228;2022-09-13T03:51:28;74.2;;;67.5;;
63955;SDS011;50131;52.084;5.228;2022-09-13T03:53:08;122.9;;;68.7;;
63955;SDS011;50131;52.084;5.228;2022-09-13T03:56:22;32.8;;;27.8;;
63955;SDS011;50131;52.084;5.228;2022-09-13T03:58:00;216.9;;;78.61;;
63955;SDS011;50131;52.084;5.228;2022-09-13T03:59:38;151.31;;;68.3;;
63955;SDS011;50131;52.084;5.228;2022-09-13T04:02:57;89.5;;;43.6;;
63955;SDS011;50131;52.084;5.228;2022-09-13T04:04:33;89.2;;;65.8;;
63955;SDS011;50131;52.084;5.228;2022-09-13T04:06:09;21.4;;;17.91;;
63955;SDS011;50131;52.084;5.228;2022-09-13T04:07:46;154.71;;;128.6;;
63955;SDS011;50131;52.084;5.228;2022-09-13T04:10:58;165.6;;;114.4;;
63955;SDS011;50131;52.084;5.228;2022-09-13T04:12:35;135.2;;;122.2;;
63955;SDS011;50131;52.084;5.228;2022-09-13T04:14:11;96.0;;;87.3;;
63955;SDS011;50131;52.084;5.228;2022-09-13T04:17:24;119.4;;;108.2;;
63955;SDS011;50131;52.084;5.228;2022-09-13T04:19:00;64.7;;;39.6;;
63955;SDS011;50131;52.084;5.228;2022-09-13T04:20:37;123.4;;;94.0;;
63955;SDS011;50131;52.084;5.228;2022-09-13T04:23:50;72.61;;;64.5;;
63955;SDS011;50131;52.084;5.228;2022-09-13T04:25:27;96.1;;;54.3;;
63955;SDS011;50131;52.084;5.228;2022-09-13T04:27:03;63.8;;;58.1;;
63955;SDS011;50131;52.084;5.228;2022-09-13T04:28:40;144.1;;;128.31;;
63955;SDS011;50131;52.084;5.228;2022-09-13T04:31:53;204.3;;;84.5;;
63955;SDS011;50131;52.084;5.228;2022-09-13T04:33:30;99.0;;;70.0;;
63955;SDS011;50131;52.084;5.228;2022-09-13T04:35:08;119.7;;;107.5;;
63955;SDS011;50131;52.084;5.228;2022-09-13T04:38:21;82.4;;;43.2;;
63955;SDS011;50131;52.084;5.228;2022-09-13T04:39:57;222.1;;;118.2;;
63955;SDS011;50131;52.084;5.228;2022-09-13T04:41:33;156.31;;;125.8;;
63955;SDS011;50131;52.084;5.228;2022-09-13T04:44:49;74.2;;;45.2;;
63955;SDS011;50131;52.084;5.228;2022-09-13T04:46:25;62.2;;;41.6;;
63955;SDS011;50131;52.084;5.228;2022-09-13T04:48:01;185.1;;;139.0;;
63955;SDS011;50131;52.084;5.228;2022-09-13T04:49:38;131.7;;;60.7;;
63955;SDS011;50131;52.084;5.228;2022-09-13T04:52:54;88.2;;;80.3;;
63955;SDS011;50131;52.084;5.228;2022-09-13T04:54:31;139.21;;;71.11;;
63955;SDS011;50131;52.084;5.228;2022-09-13T04:56:08;82.9;;;61.2;;
63955;SDS011;50131;52.084;5.228;2022-09-13T04:59:21;114.5;;;56.7;;
63955;SDS011;50131;52.084;5.228;2022-09-13T05:00:59;108.3;;;83.3;;
63955;SDS011;50131;52.084;5.228;2022-09-13T05:02:36;231.2;;;115.5;;
63955;SDS011;50131;52.084;5.228;2022-09-13T05:05:48;104.3;;;73.61;;
63955;SDS011;50131;52.084;5.228;2022-09-13T05:07:25;144.9;;;103.8;;
63955;SDS011;50131;52.084;5.228;2022-09-13T05:09:02;199.8;;;91.6;;
63955;SDS011;50131;52.084;5.228;2022-09-13T05:10:39;180.1;;;95.2;;
63955;SDS011;50131;52.084;5.228;2022-09-13T05:13:52;79.5;;;71.61;;
63955;SDS011;50131;52.084;5.228;2022-09-13T05:15:34;144.71;;;82.9;;
63955;SDS011;50131;52.084;5.228;2022-09-13T05:17:10;118.2;;;92.1;;
63955;SDS011;50131;52.084;5.228;2022-09-13T05:20:23;36.0;;;24.6;;
63955;SDS011;50131;52.084;5.228;2022-09-13T05:21:59;207.0;;;87.7;;
63955;SDS011;50131;52.084;5.228;2022-09-13T05:23:35;133.5;;;107.4;;
63955;SDS011;50131;52.084;5.228;2022-09-13T05:25:11;118.8;;;87.7;;
63955;SDS011;50131;52.084;5.228;2022-09-13T05:28:24;53.4;;;31.8;;
63955;SDS011;50131;52.084;5.228;2022-09-13T05:31:39;91.1;;;36.4;;
63955;SDS011;50131;52.084;5.228;2022-09-13T05:34:55;127.5;;;54.8;;
63955;SDS011;50131;52.084;5.228;2022-09-13T05:36:32;170.4;;;99.4;;
63955;SDS011;50131;52.084;5.228;2022-09-13T05:38:09;147.6;;;114.4;;
63955;SDS011;50131;52.084;5.228;2022-09-13T05:41:22;146.5;;;114.4;;
63955;SDS011;50131;52.084;5.228;2022-09-13T05:42:59;162.81;;;103.3;;
63955;SDS011;50131;52.084;5.228;2022-09-13T05:44:35;59.8;;;36.71;;
63955;SDS011;50131;52.084;5.228;2022-09-13T05:46:12;72.5;;;65.6;;
63955;SDS011;50131;52.084;5.228;2022-09-13T05:49:26;306.91;;;142.81;;
63955;SDS011;50131;52.084;5.228;2022-09-13T05:51:03;306.91;;;142.81;;
63955;SDS011;50131;52.084;5.228;2022-09-13T05:52:40;61.2;;;37.1;;
63955;SDS011;50131;52.084;5.228;2022-09-13T05:55:53;121.4;;;57.3;;
63955;SDS011;50131;52.084;5.228;2022-09-13T05:57:29;93.1;;;43.0;;
63955;SDS011;50131;52.084;5.228;2022-09-13T05:59:05;186.0;;;97.0;;
63955;SDS011;50131;52.084;5.228;2022-09-13T06:00:41;272.5;;;137.31;;
63955;SDS011;50131;52.084;5.228;2022-09-13T06:03:55;127.0;;;74.91;;
63955;SDS011;50131;52.084;5.228;2022-09-13T06:05:32;149.5;;;127.0;;
63955;SDS011;50131;52.084;5.228;2022-09-13T06:07:09;108.2;;;97.0;;
63955;SDS011;50131;52.084;5.228;2022-09-13T06:10:22;160.0;;;113.1;;
63955;SDS011;50131;52.084;5.228;2022-09-13T06:11:58;120.9;;;102.7;;
63955;SDS011;50131;52.084;5.228;2022-09-13T06:13:34;250.7;;;118.4;;
63955;SDS011;50131;52.084;5.228;2022-09-13T06:16:48;109.2;;;60.8;;
63955;SDS011;50131;52.084;5.228;2022-09-13T06:18:25;91.9;;;53.9;;
63955;SDS011;50131;52.084;5.228;2022-09-13T06:20:02;136.6;;;112.3;;
63955;SDS011;50131;52.084;5.228;2022-09-13T06:21:39;132.9;;;119.2;;
63955;SDS011;50131;52.084;5.228;2022-09-13T06:24:52;90.3;;;60.8;;
63955;SDS011;50131;52.084;5.228;2022-09-13T06:26:28;64.8;;;40.9;;
63955;SDS011;50131;52.084;5.228;2022-09-13T06:28:04;152.0;;;66.41;;
63955;SDS011;50131;52.084;5.228;2022-09-13T06:31:18;127.7;;;114.9;;
63955;SDS011;50131;52.084;5.228;2022-09-13T06:32:57;170.5;;;137.21;;
63955;SDS011;50131;52.084;5.228;2022-09-13T06:37:47;95.2;;;86.3;;
63955;SDS011;50131;52.084;5.228;2022-09-13T06:39:25;178.4;;;144.81;;
63955;SDS011;50131;52.084;5.228;2022-09-13T06:41:02;175.0;;;93.5;;
63955;SDS011;50131;52.084;5.228;2022-09-13T06:42:40;213.6;;;106.1;;
63955;SDS011;50131;52.084;5.228;2022-09-13T06:45:52;194.9;;;117.2;;
63955;SDS011;50131;52.084;5.228;2022-09-13T06:47:28;142.21;;;104.5;;
63955;SDS011;50131;52.084;5.228;2022-09-13T06:49:05;124.6;;;76.91;;
63955;SDS011;50131;52.084;5.228;2022-09-13T06:52:20;210.8;;;89.3;;
63955;SDS011;50131;52.084;5.228;2022-09-13T06:53:56;166.9;;;92.7;;
63955;SDS011;50131;52.084;5.228;2022-09-13T06:55:33;119.5;;;107.7;;
63955;SDS011;50131;52.084;5.228;2022-09-13T06:58:46;209.8;;;106.9;;
63955;SDS011;50131;52.084;5.228;2022-09-13T07:00:24;151.21;;;116.9;;
63955;SDS011;50131;52.084;5.228;2022-09-13T07:02:01;136.81;;;76.61;;
63955;SDS011;50131;52.084;5.228;2022-09-13T07:03:37;143.1;;;99.0;;
63955;SDS011;50131;52.084;5.228;2022-09-13T07:06:53;160.4;;;139.6;;
63955;SDS011;50131;52.084;5.228;2022-09-13T07:08:30;219.6;;;102.3;;
63955;SDS011;50131;52.084;5.228;2022-09-13T07:10:07;193.6;;;101.7;;
63955;SDS011;50131;52.084;5.228;2022-09-13T07:13:21;246.6;;;136.9;;
63955;SDS011;50131;52.084;5.228;2022-09-13T07:14:57;288.5;;;109.2;;
63955;SDS011;50131;52.084;5.228;2022-09-13T07:16:35;33.5;;;26.8;;
63955;SDS011;50131;52.084;5.228;2022-09-13T07:18:12;205.9;;;89.0;;
63955;SDS011;50131;52.084;5.228;2022-09-13T07:21:25;138.31;;;100.4;;
63955;SDS011;50131;52.084;5.228;2022-09-13T07:23:03;138.31;;;100.4;;
63955;SDS011;50131;52.084;5.228;2022-09-13T07:24:39;246.8;;;113.4;;
63955;SDS011;50131;52.084;5.228;2022-09-13T07:27:51;347.6;;;116.3;;
63955;SDS011;50131;52.084;5.228;2022-09-13T07:29:27;360.9;;;121.5;;
63955;SDS011;50131;52.084;5.228;2022-09-13T07:31:04;755.0;;;217.1;;
63955;SDS011;50131;52.084;5.228;2022-09-13T07:32:44;297.3;;;117.4;;
63955;SDS011;50131;52.084;5.228;2022-09-13T07:36:00;357.8;;;102.3;;
63955;SDS011;50131;52.084;5.228;2022-09-13T07:37:37;159.71;;;102.3;;
63955;SDS011;50131;52.084;5.228;2022-09-13T07:39:14;194.5;;;84.7;;
63955;SDS011;50131;52.084;5.228;2022-09-13T07:42:29;210.6;;;135.81;;
63955;SDS011;50131;52.084;5.228;2022-09-13T07:44:08;154.6;;;70.5;;
63955;SDS011;50131;52.084;5.228;2022-09-13T07:45:45;201.1;;;76.5;;
63955;SDS011;50131;52.084;5.228;2022-09-13T07:48:58;196.2;;;113.8;;
63955;SDS011;50131;52.084;5.228;2022-09-13T07:50:36;214.7;;;72.91;;
63955;SDS011;50131;52.084;5.228;2022-09-13T07:52:13;308.0;;;100.5;;
63955;SDS011;50131;52.084;5.228;2022-09-13T07:53:50;106.4;;;49.2;;
63955;SDS011;50131;52.084;5.228;2022-09-13T07:57:04;153.31;;;53.8;;
63955;SDS011;50131;52.084;5.228;2022-09-13T07:58:40;395.7;;;146.71;;
63955;SDS011;50131;52.084;5.228;2022-09-13T08:00:18;191.9;;;68.61;;
63955;SDS011;50131;52.084;5.228;2022-09-13T08:03:30;122.8;;;43.1;;
63955;SDS011;50131;52.084;5.228;2022-09-13T08:05:08;277.8;;;89.1;;
63955;SDS011;50131;52.084;5.228;2022-09-13T08:06:45;724.8;;;215.9;;
63955;SDS011;50131;52.084;5.228;2022-09-13T08:08:22;445.2;;;146.31;;
63955;SDS011;50131;52.084;5.228;2022-09-13T08:11:36;138.0;;;53.6;;
63955;SDS011;50131;52.084;5.228;2022-09-13T08:13:14;464.7;;;168.0;;
63955;SDS011;50131;52.084;5.228;2022-09-13T08:14:51;157.6;;;75.91;;
63955;SDS011;50131;52.084;5.228;2022-09-13T08:18:06;212.4;;;85.0;;
63955;SDS011;50131;52.084;5.228;2022-09-13T08:19:43;228.4;;;68.2;;
63955;SDS011;50131;52.084;5.228;2022-09-13T08:21:20;481.2;;;142.21;;
63955;SDS011;50131;52.084;5.228;2022-09-13T08:22:57;481.2;;;142.21;;
63955;SDS011;50131;52.084;5.228;2022-09-13T08:26:10;88.1;;;37.4;;
63955;SDS011;50131;52.084;5.228;2022-09-13T08:27:47;364.2;;;127.3;;
63955;SDS011;50131;52.084;5.228;2022-09-13T08:29:24;110.9;;;38.9;;
63955;SDS011;50131;52.084;5.228;2022-09-13T08:32:39;168.5;;;61.2;;
63955;SDS011;50131;52.084;5.228;2022-09-13T08:34:16;133.81;;;40.6;;
63955;SDS011;50131;52.084;5.228;2022-09-13T08:35:54;660.5;;;164.3;;
63955;SDS011;50131;52.084;5.228;2022-09-13T08:39:10;420.9;;;132.6;;
63955;SDS011;50131;52.084;5.228;2022-09-13T08:40:49;226.6;;;66.2;;
63955;SDS011;50131;52.084;5.228;2022-09-13T08:42:31;113.7;;;83.7;;
63955;SDS011;50131;52.084;5.228;2022-09-13T08:44:26;170.2;;;61.9;;
63955;SDS011;50131;52.084;5.228;2022-09-13T08:46:05;284.7;;;147.0;;
63955;SDS011;50131;52.084;5.228;2022-09-13T08:49:33;250.4;;;114.3;;
63955;SDS011;50131;52.084;5.228;2022-09-13T08:51:21;207.1;;;111.2;;
63955;SDS011;50131;52.084;5.228;2022-09-13T08:53:07;371.3;;;137.1;;
63955;SDS011;50131;52.084;5.228;2022-09-13T08:54:54;304.8;;;154.31;;
63955;SDS011;50131;52.084;5.228;2022-09-13T08:56:34;179.1;;;58.7;;
63955;SDS011;50131;52.084;5.228;2022-09-13T09:00:38;134.81;;;74.41;;
63955;SDS011;50131;52.084;5.228;2022-09-13T09:04:18;110.2;;;34.4;;
63955;SDS011;50131;52.084;5.228;2022-09-13T09:06:11;333.5;;;143.31;;
63955;SDS011;50131;52.084;5.228;2022-09-13T09:07:51;126.2;;;44.4;;
63955;SDS011;50131;52.084;5.228;2022-09-13T09:09:33;294.91;;;122.7;;
63955;SDS011;50131;52.084;5.228;2022-09-13T09:11:19;511.0;;;141.5;;
63955;SDS011;50131;52.084;5.228;2022-09-13T09:14:56;268.2;;;94.5;;
63955;SDS011;50131;52.084;5.228;2022-09-13T09:16:38;275.2;;;92.5;;
63955;SDS011;50131;52.084;5.228;2022-09-13T09:18:21;482.2;;;169.3;;
63955;SDS011;50131;52.084;5.228;2022-09-13T09:20:06;297.3;;;110.9;;
63955;SDS011;50131;52.084;5.228;2022-09-13T09:21:58;583.4;;;174.6;;
63955;SDS011;50131;52.084;5.228;2022-09-13T09:23:40;115.0;;;57.0;;
63955;SDS011;50131;52.084;5.228;2022-09-13T09:27:09;725.3;;;198.9;;
63955;SDS011;50131;52.084;5.228;2022-09-13T09:28:50;236.8;;;65.8;;
63955;SDS011;50131;52.084;5.228;2022-09-13T09:30:33;315.0;;;125.3;;
63955;SDS011;50131;52.084;5.228;2022-09-13T09:32:30;368.8;;;129.81;;
63955;SDS011;50131;52.084;5.228;2022-09-13T09:34:23;140.71;;;53.7;;
63955;SDS011;50131;52.084;5.228;2022-09-13T09:36:11;361.6;;;113.1;;
63955;SDS011;50131;52.084;5.228;2022-09-13T09:40:16;232.6;;;95.8;;
63955;SDS011;50131;52.084;5.228;2022-09-13T09:41:51;694.4;;;188.4;;
63955;SDS011;50131;52.084;5.228;2022-09-13T09:43:33;260.2;;;159.0;;
63955;SDS011;50131;52.084;5.228;2022-09-13T09:45:22;530.21;;;159.0;;
63955;SDS011;50131;52.084;5.228;2022-09-13T09:47:03;483.4;;;144.6;;
63955;SDS011;50131;52.084;5.228;2022-09-13T09:48:47;525.6;;;143.1;;
63955;SDS011;50131;52.084;5.228;2022-09-13T09:52:09;377.9;;;109.7;;
63955;SDS011;50131;52.084;5.228;2022-09-13T09:53:53;202.2;;;88.1;;
63955;SDS011;50131;52.084;5.228;2022-09-13T09:55:37;181.4;;;67.0;;
63955;SDS011;50131;52.084;5.228;2022-09-13T09:57:40;187.7;;;105.9;;
63955;SDS011;50131;52.084;5.228;2022-09-13T09:59:26;631.6;;;210.7;;
63955;SDS011;50131;52.084;5.228;2022-09-13T10:02:55;310.2;;;118.3;;
63955;SDS011;50131;52.084;5.228;2022-09-13T10:04:34;268.9;;;82.8;;
63955;SDS011;50131;52.084;5.228;2022-09-13T10:06:11;474.1;;;114.8;;
63955;SDS011;50131;52.084;5.228;2022-09-13T10:07:54;274.8;;;96.1;;
63955;SDS011;50131;52.084;5.228;2022-09-13T10:11:11;279.7;;;73.8;;
63955;SDS011;50131;52.084;5.228;2022-09-13T10:12:48;221.6;;;89.8;;
63955;SDS011;50131;52.084;5.228;2022-09-13T10:14:30;264.9;;;82.2;;
63955;SDS011;50131;52.084;5.228;2022-09-13T10:16:20;112.6;;;83.8;;
63955;SDS011;50131;52.084;5.228;2022-09-13T10:18:03;115.2;;;88.2;;
63955;SDS011;50131;52.084;5.228;2022-09-13T10:21:30;373.6;;;185.2;;
63955;SDS011;50131;52.084;5.228;2022-09-13T10:23:08;229.5;;;154.9;;
63955;SDS011;50131;52.084;5.228;2022-09-13T10:24:54;178.5;;;71.61;;
63955;SDS011;50131;52.084;5.228;2022-09-13T10:26:31;291.8;;;235.3;;
63955;SDS011;50131;52.084;5.228;2022-09-13T10:29:51;159.81;;;70.41;;
63955;SDS011;50131;52.084;5.228;2022-09-13T10:31:32;204.8;;;69.91;;
63955;SDS011;50131;52.084;5.228;2022-09-13T10:33:16;124.8;;;55.2;;
63955;SDS011;50131;52.084;5.228;2022-09-13T10:35:04;253.7;;;140.81;;
63955;SDS011;50131;52.084;5.228;2022-09-13T10:36:52;694.8;;;216.9;;
63955;SDS011;50131;52.084;5.228;2022-09-13T10:40:15;1226.41;;;351.0;;
63955;SDS011;50131;52.084;5.228;2022-09-13T10:41:59;243.5;;;76.8;;
63955;SDS011;50131;52.084;5.228;2022-09-13T10:43:39;326.41;;;107.8;;
63955;SDS011;50131;52.084;5.228;2022-09-13T10:45:18;164.0;;;146.81;;
63955;SDS011;50131;52.084;5.228;2022-09-13T10:48:43;176.6;;;73.7;;
63955;SDS011;50131;52.084;5.228;2022-09-13T10:50:23;617.71;;;183.8;;
63955;SDS011;50131;52.084;5.228;2022-09-13T10:52:10;277.61;;;177.9;;
63955;SDS011;50131;52.084;5.228;2022-09-13T10:54:08;388.6;;;112.4;;
63955;SDS011;50131;52.084;5.228;2022-09-13T10:55:54;173.1;;;53.4;;
63955;SDS011;50131;52.084;5.228;2022-09-13T10:59:13;404.3;;;148.21;;
63955;SDS011;50131;52.084;5.228;2022-09-13T11:01:11;628.1;;;162.1;;
63955;SDS011;50131;52.084;5.228;2022-09-13T11:03:22;357.5;;;136.6;;
63955;SDS011;50131;52.084;5.228;2022-09-13T11:05:20;157.5;;;95.4;;
63955;SDS011;50131;52.084;5.228;2022-09-13T11:07:05;392.4;;;143.5;;
63955;SDS011;50131;52.084;5.228;2022-09-13T11:08:53;875.1;;;230.5;;
63955;SDS011;50131;52.084;5.228;2022-09-13T11:10:43;247.6;;;111.1;;
63955;SDS011;50131;52.084;5.228;2022-09-13T11:12:33;418.0;;;158.21;;
63955;SDS011;50131;52.084;5.228;2022-09-13T11:16:20;127.7;;;49.7;;
63955;SDS011;50131;52.084;5.228;2022-09-13T11:18:17;955.6;;;248.7;;
63955;SDS011;50131;52.084;5.228;2022-09-13T11:20:12;466.2;;;144.81;;
63955;SDS011;50131;52.084;5.228;2022-09-13T11:22:07;614.81;;;208.0;;
63955;SDS011;50131;52.084;5.228;2022-09-13T11:24:11;252.4;;;130.1;;
63955;SDS011;50131;52.084;5.228;2022-09-13T11:26:22;324.3;;;101.9;;
63955;SDS011;50131;52.084;5.228;2022-09-13T11:28:36;221.4;;;79.8;;
63955;SDS011;50131;52.084;5.228;2022-09-13T11:30:25;335.5;;;99.2;;
63955;SDS011;50131;52.084;5.228;2022-09-13T11:32:10;461.5;;;155.1;;
63955;SDS011;50131;52.084;5.228;2022-09-13T11:34:02;1523.9;;;372.1;;
63955;SDS011;50131;52.084;5.228;2022-09-13T11:35:53;661.2;;;187.0;;
63955;SDS011;50131;52.084;5.228;2022-09-13T11:37:54;445.2;;;209.6;;
63955;SDS011;50131;52.084;5.228;2022-09-13T11:39:42;342.8;;;185.3;;
63955;SDS011;50131;52.084;5.228;2022-09-13T11:43:21;542.9;;;222.2;;
63955;SDS011;50131;52.084;5.228;2022-09-13T11:45:17;540.21;;;337.5;;
63955;SDS011;50131;52.084;5.228;2022-09-13T11:47:13;514.5;;;246.3;;
63955;SDS011;50131;52.084;5.228;2022-09-13T11:49:17;626.9;;;363.3;;
63955;SDS011;50131;52.084;5.228;2022-09-13T11:51:30;1489.4;;;589.81;;
63955;SDS011;50131;52.084;5.228;2022-09-13T11:53:26;560.81;;;389.0;;
63955;SDS011;50131;52.084;5.228;2022-09-13T11:55:19;1179.7;;;403.8;;
63955;SDS011;50131;52.084;5.228;2022-09-13T11:57:04;1126.8;;;504.4;;
63955;SDS011;50131;52.084;5.228;2022-09-13T11:58:47;1394.0;;;604.9;;
63955;SDS011;50131;52.084;5.228;2022-09-13T12:02:13;1999.9;;;776.4;;
63955;SDS011;50131;52.084;5.228;2022-09-13T12:04:00;1290.5;;;673.1;;
63955;SDS011;50131;52.084;5.228;2022-09-13T12:05:41;1048.7;;;583.31;;
63955;SDS011;50131;52.084;5.228;2022-09-13T12:07:33;802.3;;;649.31;;
63955;SDS011;50131;52.084;5.228;2022-09-13T12:09:14;1632.0;;;734.1;;
63955;SDS011;50131;52.084;5.228;2022-09-13T12:12:37;1337.3;;;771.2;;
63955;SDS011;50131;52.084;5.228;2022-09-13T12:14:16;1965.9;;;785.1;;
63955;SDS011;50131;52.084;5.228;2022-09-13T12:15:58;1999.9;;;922.8;;
63955;SDS011;50131;52.084;5.228;2022-09-13T12:17:38;1517.2;;;813.7;;
63955;SDS011;50131;52.084;5.228;2022-09-13T12:21:02;1601.6;;;769.6;;
63955;SDS011;50131;52.084;5.228;2022-09-13T12:22:43;1377.2;;;866.2;;
63955;SDS011;50131;52.084;5.228;2022-09-13T12:24:24;1999.9;;;862.9;;
63955;SDS011;50131;52.084;5.228;2022-09-13T12:26:14;1532.4;;;782.4;;
63955;SDS011;50131;52.084;5.228;2022-09-13T12:27:55;1999.9;;;848.5;;
63955;SDS011;50131;52.084;5.228;2022-09-13T12:31:23;1745.1;;;887.1;;
63955;SDS011;50131;52.084;5.228;2022-09-13T12:33:01;1647.0;;;959.6;;